Time;durP1;ratioP1;P1;durP2;ratioP2;P2;SDS_P1;SDS_P2;PMS_P1;PMS_P2;Temp;Humidity;BMP_temperature;BMP_pressure;BME280_temperature;BME280_humidity;BME280_pressure;Samples;Min_cycle;Max_cycle;Signal;HPM_P1;HPM_P2
2022/10/19 00:02:24;;;;;;;;;;;16.20;99.90;;;;;;5083004;28;19904;-81
2022/10/19 00:04:50;;;;;;;;;;;16.20;99.90;;;;;;5100191;28;19908;-83
2022/10/19 00:07:15;;;;;;;;;;;16.30;99.90;;;;;;5093273;28;20315;-83
2022/10/19 00:09:42;;;;;;;;;;;16.30;99.90;;;;;;5093413;28;19912;-81
2022/10/19 00:12:07;;;;;;;;;;;16.20;99.90;;;;;;5090355;28;19909;-82
2022/10/19 00:14:33;;;;;;;;;;;16.20;99.90;;;;;;5089397;28;20195;-81
2022/10/19 00:16:59;;;;;;;;;;;16.20;99.90;;;;;;5090978;28;19909;-82
2022/10/19 00:19:25;;;;;;;;;;;16.20;99.90;;;;;;5092070;28;19913;-82
2022/10/19 00:21:51;;;;;;;;;;;16.20;99.90;;;;;;5076630;28;20016;-83
2022/10/19 00:24:17;;;;;;;;;;;16.20;99.90;;;;;;5093544;28;19917;-81
2022/10/19 00:26:43;;;;;;;;;;;16.10;99.90;;;;;;5097633;28;19915;-83
2022/10/19 00:29:09;;;;;;;;;;;16.10;99.90;;;;;;5080084;28;19916;-82
2022/10/19 00:31:35;;;;;;;;;;;16.10;99.90;;;;;;5093156;28;19892;-81
2022/10/19 00:34:01;;;;;;;;;;;16.20;99.90;;;;;;5096425;28;19935;-81
2022/10/19 00:36:28;;;;;;;;;;;16.20;99.90;;;;;;5099437;22;19956;-79
2022/10/19 00:38:54;;;;;;;;;;;16.10;99.90;;;;;;5060449;28;20021;-79
2022/10/19 00:41:20;;;;;;;;;;;16.00;99.90;;;;;;5063215;28;19916;-78
2022/10/19 00:43:55;;;;;;;;;;;16.00;99.90;;;;;;5069437;28;19963;-77
2022/10/19 00:46:21;;;;;;;;;;;16.00;99.90;;;;;;5060539;28;20372;-79
2022/10/19 00:48:47;;;;;;;;;;;16.00;99.90;;;;;;5085451;28;19909;-78
2022/10/19 00:51:13;;;;;;;;;;;15.90;99.90;;;;;;5088972;28;19935;-77
2022/10/19 00:53:39;;;;;;;;;;;15.90;99.90;;;;;;5086603;28;19913;-78
2022/10/19 00:56:08;;;;;;;;;;;15.90;99.90;;;;;;5080661;28;19913;-79
2022/10/19 00:58:33;;;;;;;;;;;15.90;99.90;;;;;;5062161;28;19916;-79
2022/10/19 01:01:01;;;;;;;;;;;15.90;99.90;;;;;;5078535;28;19917;-79
2022/10/19 01:03:26;;;;;;;;;;;15.90;99.90;;;;;;5062271;28;20442;-78
2022/10/19 01:05:52;;;;;;;;;;;15.90;99.90;;;;;;5082031;28;19913;-78
2022/10/19 01:08:18;;;;;;;;;;;15.90;99.90;;;;;;5082441;28;20335;-79
2022/10/19 01:11:02;;;;;;;;;;;15.90;99.90;;;;;;5050905;28;19920;-79
2022/10/19 01:13:28;;;;;;;;;;;15.90;99.90;;;;;;5071762;28;19916;-79
2022/10/19 01:16:14;;;;;;;;;;;15.90;99.90;;;;;;5093028;28;19956;-78
2022/10/19 01:18:47;;;;;;;;;;;15.90;99.90;;;;;;5091984;28;19960;-78
2022/10/19 01:21:17;;;;;;;;;;;15.90;99.90;;;;;;5073861;28;19959;-77
2022/10/19 01:23:54;;;;;;;;;;;15.90;99.90;;;;;;5089746;28;19916;-78
2022/10/19 01:26:36;;;;;;;;;;;15.90;99.90;;;;;;5089882;28;19913;-78
2022/10/19 01:29:12;;;;;;;;;;;15.90;99.90;;;;;;5086817;28;19913;-78
2022/10/19 01:31:41;;;;;;;;;;;15.90;99.90;;;;;;5059877;28;20026;-79
2022/10/19 01:34:09;;;;;;;;;;;15.80;99.90;;;;;;5059769;28;19958;-78
2022/10/19 01:36:41;;;;;;;;;;;15.80;99.90;;;;;;5061902;28;19924;-79
2022/10/19 01:39:10;;;;;;;;;;;15.80;99.90;;;;;;5060627;28;19939;-77
2022/10/19 01:41:36;;;;;;;;;;;15.80;99.90;;;;;;5043615;28;19913;-79
2022/10/19 01:44:01;;;;;;;;;;;15.80;99.90;;;;;;5061089;28;19919;-79
2022/10/19 01:46:45;;;;;;;;;;;15.80;99.90;;;;;;5063138;28;19958;-77
2022/10/19 01:49:30;;;;;;;;;;;15.70;99.90;;;;;;5069864;28;19919;-77
2022/10/19 01:51:57;;;;;;;;;;;15.70;99.90;;;;;;5084472;28;19919;-78
2022/10/19 01:54:25;;;;;;;;;;;15.70;99.90;;;;;;5089501;28;19917;-78
2022/10/19 01:56:52;;;;;;;;;;;15.70;99.90;;;;;;5084882;28;19970;-80
2022/10/19 01:59:19;;;;;;;;;;;15.60;99.90;;;;;;5083620;28;19951;-78
2022/10/19 02:01:47;;;;;;;;;;;15.70;99.90;;;;;;5078803;28;20384;-78
2022/10/19 02:04:14;;;;;;;;;;;15.60;99.90;;;;;;5079456;28;19954;-79
2022/10/19 02:06:41;;;;;;;;;;;15.50;99.90;;;;;;5081465;28;19913;-78
2022/10/19 02:09:06;;;;;;;;;;;15.40;99.90;;;;;;5077127;28;19916;-78
2022/10/19 02:11:33;;;;;;;;;;;15.30;99.90;;;;;;5079180;28;20292;-78
2022/10/19 02:14:03;;;;;;;;;;;15.30;99.90;;;;;;5090107;28;19913;-77
2022/10/19 02:16:31;;;;;;;;;;;15.20;99.90;;;;;;5098174;28;19943;-78
2022/10/19 02:18:57;;;;;;;;;;;15.10;99.90;;;;;;5092243;28;19912;-79
2022/10/19 02:21:23;;;;;;;;;;;15.10;99.90;;;;;;5081098;28;19920;-81
2022/10/19 02:23:49;;;;;;;;;;;15.00;99.90;;;;;;5079638;28;19999;-79
2022/10/19 02:26:14;;;;;;;;;;;15.00;99.90;;;;;;5083072;28;19923;-80
2022/10/19 02:28:40;;;;;;;;;;;14.90;99.90;;;;;;5064073;28;19988;-80
2022/10/19 02:31:06;;;;;;;;;;;14.90;99.90;;;;;;5061548;28;19912;-77
2022/10/19 02:33:31;;;;;;;;;;;14.80;99.90;;;;;;5080623;28;19920;-78
2022/10/19 02:35:58;;;;;;;;;;;14.70;99.90;;;;;;5079405;28;19920;-79
2022/10/19 02:38:24;;;;;;;;;;;14.70;99.90;;;;;;5082555;28;19915;-80
2022/10/19 02:40:59;;;;;;;;;;;14.70;99.90;;;;;;5087882;28;19952;-81
2022/10/19 02:43:27;;;;;;;;;;;14.60;99.90;;;;;;5078635;28;19988;-79
2022/10/19 02:46:07;;;;;;;;;;;14.60;99.90;;;;;;5084716;28;19917;-79
2022/10/19 02:48:35;;;;;;;;;;;14.50;99.90;;;;;;5085093;28;19913;-79
2022/10/19 02:51:01;;;;;;;;;;;14.50;99.90;;;;;;5082418;28;19995;-79
2022/10/19 02:53:27;;;;;;;;;;;14.50;99.90;;;;;;5083413;28;19938;-80
2022/10/19 02:55:52;;;;;;;;;;;14.40;99.90;;;;;;5080002;28;19931;-81
2022/10/19 02:58:18;;;;;;;;;;;14.40;99.90;;;;;;5059856;28;19920;-78
2022/10/19 03:00:44;;;;;;;;;;;14.40;99.90;;;;;;5078740;28;19955;-79
2022/10/19 03:03:09;;;;;;;;;;;14.30;99.90;;;;;;5064450;28;19912;-79
2022/10/19 03:05:35;;;;;;;;;;;14.20;99.90;;;;;;5065964;28;20265;-78
2022/10/19 03:08:01;;;;;;;;;;;14.20;99.90;;;;;;5068370;28;19942;-78
2022/10/19 03:10:26;;;;;;;;;;;14.20;99.90;;;;;;5066152;28;19916;-78
2022/10/19 03:12:52;;;;;;;;;;;14.20;99.90;;;;;;5060396;28;19912;-78
2022/10/19 03:15:18;;;;;;;;;;;14.10;99.90;;;;;;5078242;28;19930;-79
2022/10/19 03:17:44;;;;;;;;;;;14.10;99.90;;;;;;5077633;28;19912;-78
2022/10/19 03:20:10;;;;;;;;;;;14.10;99.90;;;;;;5069377;28;19908;-78
2022/10/19 03:22:36;;;;;;;;;;;14.20;99.90;;;;;;5083242;28;19920;-79
2022/10/19 03:25:02;;;;;;;;;;;14.20;99.90;;;;;;5063688;28;19962;-80
2022/10/19 03:27:27;;;;;;;;;;;14.10;99.90;;;;;;5081389;28;19912;-81
2022/10/19 03:29:53;;;;;;;;;;;14.10;99.90;;;;;;5082090;28;19932;-79
2022/10/19 03:32:20;;;;;;;;;;;14.10;99.90;;;;;;5064228;28;19916;-79
2022/10/19 03:34:45;;;;;;;;;;;14.10;99.90;;;;;;5063923;28;19915;-78
2022/10/19 03:37:12;;;;;;;;;;;14.00;99.90;;;;;;5080828;28;20368;-78
2022/10/19 03:39:37;;;;;;;;;;;14.00;99.90;;;;;;5083808;28;19916;-80
2022/10/19 03:42:03;;;;;;;;;;;14.00;99.90;;;;;;5090147;28;19996;-78
2022/10/19 03:44:29;;;;;;;;;;;14.00;99.90;;;;;;5087211;28;19951;-78
2022/10/19 03:46:54;;;;;;;;;;;14.00;99.90;;;;;;5063411;28;19982;-81
2022/10/19 03:49:20;;;;;;;;;;;14.00;99.90;;;;;;5082550;28;19991;-80
2022/10/19 03:51:46;;;;;;;;;;;14.00;99.90;;;;;;5080729;28;19912;-79
2022/10/19 03:54:13;;;;;;;;;;;13.90;99.90;;;;;;5080763;28;19912;-79
2022/10/19 03:56:39;;;;;;;;;;;14.00;99.90;;;;;;5072330;28;19927;-79
2022/10/19 03:59:05;;;;;;;;;;;13.90;99.90;;;;;;5087353;28;19908;-78
2022/10/19 04:01:36;;;;;;;;;;;13.90;99.90;;;;;;5065893;28;19916;-80
2022/10/19 04:04:03;;;;;;;;;;;13.90;99.90;;;;;;5081892;28;20317;-80
2022/10/19 04:06:33;;;;;;;;;;;13.90;99.90;;;;;;5064449;28;20028;-79
2022/10/19 04:08:59;;;;;;;;;;;13.80;99.90;;;;;;5090333;28;19916;-78
2022/10/19 04:11:27;;;;;;;;;;;13.80;99.90;;;;;;5091072;28;19939;-79
2022/10/19 04:13:53;;;;;;;;;;;13.80;99.90;;;;;;5065042;28;19913;-79
2022/10/19 04:16:19;;;;;;;;;;;13.80;99.90;;;;;;5083887;28;20542;-80
2022/10/19 04:18:45;;;;;;;;;;;13.70;99.90;;;;;;5082368;28;20403;-80
2022/10/19 04:21:24;;;;;;;;;;;13.70;99.90;;;;;;5068159;28;19912;-80
2022/10/19 04:23:51;;;;;;;;;;;13.70;99.90;;;;;;5087943;28;19913;-82
2022/10/19 04:26:17;;;;;;;;;;;13.70;99.90;;;;;;5089182;28;19915;-80
2022/10/19 04:28:43;;;;;;;;;;;13.70;99.90;;;;;;5048200;28;19912;-78
2022/10/19 04:31:09;;;;;;;;;;;13.70;99.90;;;;;;5088633;28;19918;-80
2022/10/19 04:33:35;;;;;;;;;;;13.70;99.90;;;;;;5070569;28;19916;-79
2022/10/19 04:36:01;;;;;;;;;;;13.70;99.90;;;;;;5089228;28;19924;-79
2022/10/19 04:38:27;;;;;;;;;;;13.70;99.90;;;;;;5099468;28;19908;-78
2022/10/19 04:40:55;;;;;;;;;;;13.70;99.90;;;;;;5100329;28;19917;-79
2022/10/19 04:43:21;;;;;;;;;;;13.70;99.90;;;;;;5099933;28;19935;-80
2022/10/19 04:45:46;;;;;;;;;;;13.70;99.90;;;;;;5098987;28;19948;-80
2022/10/19 04:48:12;;;;;;;;;;;13.70;99.90;;;;;;5080641;28;19931;-80
2022/10/19 04:50:37;;;;;;;;;;;13.70;99.90;;;;;;5092265;28;19916;-81
2022/10/19 04:53:03;;;;;;;;;;;13.60;99.90;;;;;;5069393;28;20012;-81
2022/10/19 04:55:29;;;;;;;;;;;13.60;99.90;;;;;;5084831;28;19913;-82
2022/10/19 04:57:54;;;;;;;;;;;13.60;99.90;;;;;;5084751;28;19912;-81
2022/10/19 05:00:20;;;;;;;;;;;13.60;99.90;;;;;;5090721;28;20659;-80
2022/10/19 05:02:46;;;;;;;;;;;13.60;99.90;;;;;;5087693;28;19924;-81
2022/10/19 05:05:12;;;;;;;;;;;13.60;99.90;;;;;;5083682;28;20388;-78
2022/10/19 05:07:38;;;;;;;;;;;13.70;99.90;;;;;;5066773;28;19913;-79
2022/10/19 05:10:04;;;;;;;;;;;13.60;99.90;;;;;;5090297;28;19915;-82
2022/10/19 05:12:30;;;;;;;;;;;13.60;99.90;;;;;;5072958;28;19917;-80
2022/10/19 05:14:56;;;;;;;;;;;13.60;99.90;;;;;;5089143;28;19923;-80
2022/10/19 05:17:21;;;;;;;;;;;13.50;99.90;;;;;;5085174;28;19912;-81
2022/10/19 05:19:47;;;;;;;;;;;13.50;99.90;;;;;;5086381;28;19908;-80
2022/10/19 05:22:13;;;;;;;;;;;13.50;99.90;;;;;;5083601;28;19913;-81
2022/10/19 05:24:38;;;;;;;;;;;13.50;99.90;;;;;;5083382;28;19934;-80
2022/10/19 05:27:04;;;;;;;;;;;13.50;99.90;;;;;;5065442;28;19912;-80
2022/10/19 05:29:32;;;;;;;;;;;13.50;99.90;;;;;;5091705;28;19971;-82
2022/10/19 05:31:58;;;;;;;;;;;13.50;99.90;;;;;;5090955;28;19992;-81
2022/10/19 05:34:24;;;;;;;;;;;13.50;99.90;;;;;;5065378;28;19909;-82
2022/10/19 05:36:49;;;;;;;;;;;13.60;99.90;;;;;;5091115;28;20273;-79
2022/10/19 05:39:16;;;;;;;;;;;13.50;99.90;;;;;;5082789;28;19912;-78
2022/10/19 05:41:42;;;;;;;;;;;13.60;99.90;;;;;;5081880;28;20026;-79
2022/10/19 05:44:10;;;;;;;;;;;13.60;99.90;;;;;;5064485;28;19916;-80
2022/10/19 05:46:36;;;;;;;;;;;13.60;99.90;;;;;;5082513;28;19920;-80
2022/10/19 05:49:02;;;;;;;;;;;13.60;99.90;;;;;;5083381;28;19908;-82
2022/10/19 05:51:28;;;;;;;;;;;13.60;99.90;;;;;;5095949;28;19991;-79
2022/10/19 05:53:54;;;;;;;;;;;13.70;99.90;;;;;;5079103;28;19919;-81
2022/10/19 05:56:22;;;;;;;;;;;13.70;99.90;;;;;;5094442;28;19923;-80
2022/10/19 05:58:48;;;;;;;;;;;13.70;99.90;;;;;;5091560;28;20220;-80
2022/10/19 06:01:14;;;;;;;;;;;13.70;99.90;;;;;;5074914;28;19912;-79
2022/10/19 06:03:40;;;;;;;;;;;13.80;99.90;;;;;;5095292;28;19908;-80
2022/10/19 06:06:06;;;;;;;;;;;13.80;99.90;;;;;;5094358;28;19920;-78
2022/10/19 06:08:32;;;;;;;;;;;13.80;99.90;;;;;;5094537;28;19897;-79
2022/10/19 06:11:05;;;;;;;;;;;13.70;99.90;;;;;;5095152;28;19959;-80
2022/10/19 06:13:31;;;;;;;;;;;13.70;99.90;;;;;;5097400;28;19930;-77
2022/10/19 06:15:56;;;;;;;;;;;13.80;99.90;;;;;;5079763;28;19979;-79
2022/10/19 06:18:24;;;;;;;;;;;13.80;99.90;;;;;;5079581;28;19917;-79
2022/10/19 06:20:50;;;;;;;;;;;13.80;99.90;;;;;;5079814;28;19900;-82
2022/10/19 06:23:16;;;;;;;;;;;13.90;99.90;;;;;;5079324;28;19916;-80
2022/10/19 06:25:41;;;;;;;;;;;14.00;99.90;;;;;;5094673;28;19909;-79
2022/10/19 06:28:07;;;;;;;;;;;14.00;99.90;;;;;;5092035;28;19936;-82
2022/10/19 06:30:33;;;;;;;;;;;14.20;99.90;;;;;;5072208;28;19944;-81
2022/10/19 06:32:59;;;;;;;;;;;14.40;99.90;;;;;;5091487;28;19952;-81
2022/10/19 06:35:24;;;;;;;;;;;14.60;99.90;;;;;;5096093;28;19920;-80
2022/10/19 06:37:55;;;;;;;;;;;14.70;99.90;;;;;;5095188;22;20493;-90
2022/10/19 06:40:32;;;;;;;;;;;14.70;99.90;;;;;;5036126;28;19913;-90
2022/10/19 06:43:02;;;;;;;;;;;14.70;99.90;;;;;;5050423;28;19917;-89
2022/10/19 06:45:38;;;;;;;;;;;14.80;99.90;;;;;;5050058;28;19976;-90
2022/10/19 06:48:04;;;;;;;;;;;14.80;99.90;;;;;;5086973;28;20276;-88
2022/10/19 06:50:50;;;;;;;;;;;14.90;99.90;;;;;;5087947;28;19915;-87
2022/10/19 06:53:19;;;;;;;;;;;14.90;99.90;;;;;;5071044;28;19925;-90
2022/10/19 06:55:50;;;;;;;;;;;14.90;99.90;;;;;;5069879;28;20386;-90
2022/10/19 06:58:17;;;;;;;;;;;14.90;99.90;;;;;;5058593;28;19904;-86
2022/10/19 07:01:03;;;;;;;;;;;;;;;;;;;;;
2022/10/19 07:03:46;;;;;;;;;;;14.90;99.90;;;;;;5080828;28;19905;-88
2022/10/19 07:06:24;;;;;;;;;;;15.00;99.90;;;;;;5064054;28;19905;-88
2022/10/19 07:12:00;;;;;;;;;;;15.10;99.90;;;;;;5086984;28;19900;-88
2022/10/19 07:14:39;;;;;;;;;;;15.10;99.90;;;;;;5079334;28;20334;-88
2022/10/19 07:17:13;;;;;;;;;;;15.20;99.90;;;;;;5059214;28;19917;-89
2022/10/19 07:20:11;;;;;;;;;;;15.20;99.90;;;;;;5085906;28;19916;-89
2022/10/19 07:23:32;;;;;;;;;;;;;;;;;;;;;
2022/10/19 07:26:37;;;;;;;;;;;15.50;99.90;;;;;;5089368;28;19952;-89
2022/10/19 07:30:13;;;;;;;;;;;;;;;;;;;;;
2022/10/19 07:32:59;;;;;;;;;;;15.60;99.90;;;;;;5070350;28;19923;-88
2022/10/19 07:39:15;;;;;;;;;;;15.60;99.90;;;;;;5086886;28;19921;-90
2022/10/19 07:45:07;;;;;;;;;;;15.70;99.90;;;;;;5088370;28;19954;-88
2022/10/19 07:51:03;;;;;;;;;;;15.90;99.90;;;;;;5024953;28;19932;-88
2022/10/19 07:54:01;;;;;;;;;;;15.90;99.90;;;;;;5009946;28;19913;-88
2022/10/19 07:56:37;;;;;;;;;;;15.90;99.90;;;;;;5066568;28;19927;-89
2022/10/19 07:59:17;;;;;;;;;;;15.90;99.90;;;;;;5068698;28;19919;-88
2022/10/19 08:01:48;;;;;;;;;;;15.90;99.90;;;;;;5057488;28;19947;-85
2022/10/19 08:04:46;;;;;;;;;;;16.00;99.90;;;;;;5062842;28;19991;-87
2022/10/19 08:07:36;;;;;;;;;;;16.20;99.90;;;;;;5061307;28;19979;-85
2022/10/19 08:10:35;;;;;;;;;;;16.40;99.90;;;;;;5098686;28;19927;-86
2022/10/19 08:13:04;;;;;;;;;;;16.60;99.90;;;;;;5066785;28;19919;-86
2022/10/19 08:15:35;;;;;;;;;;;16.70;99.90;;;;;;5096008;28;20227;-88
2022/10/19 08:18:04;;;;;;;;;;;16.80;99.90;;;;;;5056964;28;19916;-89
2022/10/19 08:20:48;;;;;;;;;;;16.70;99.90;;;;;;5066518;28;19908;-87
2022/10/19 08:23:35;;;;;;;;;;;16.80;99.90;;;;;;5058379;28;19927;-88
2022/10/19 08:26:07;;;;;;;;;;;17.00;99.90;;;;;;5056531;28;19912;-89
2022/10/19 08:28:43;;;;;;;;;;;17.10;99.90;;;;;;5062899;28;19920;-87
2022/10/19 08:31:24;;;;;;;;;;;17.20;99.90;;;;;;5074595;28;19930;-89
2022/10/19 08:33:53;;;;;;;;;;;17.30;99.90;;;;;;5057083;28;19913;-89
2022/10/19 08:36:34;;;;;;;;;;;17.40;99.90;;;;;;5064286;28;19935;-88
2022/10/19 08:39:19;;;;;;;;;;;17.50;99.90;;;;;;5067285;28;19931;-87
2022/10/19 08:42:42;;;;;;;;;;;17.60;99.90;;;;;;5083626;28;19963;-86
2022/10/19 08:45:35;;;;;;;;;;;17.80;99.90;;;;;;5003495;28;19906;-88
2022/10/19 08:48:24;;;;;;;;;;;18.20;99.90;;;;;;4986652;28;19917;-90
2022/10/19 08:51:03;;;;;;;;;;;18.30;99.90;;;;;;5067039;28;19923;-88
2022/10/19 08:54:11;;;;;;;;;;;18.50;99.90;;;;;;5056296;28;19912;-88
2022/10/19 08:57:04;;;;;;;;;;;18.50;99.90;;;;;;5056913;28;19979;-90
2022/10/19 09:00:01;;;;;;;;;;;18.40;99.90;;;;;;5054830;28;19912;-87
2022/10/19 09:02:54;;;;;;;;;;;18.50;99.90;;;;;;5050491;28;19907;-89
2022/10/19 09:05:32;;;;;;;;;;;18.20;99.90;;;;;;5057470;28;19920;-89
2022/10/19 09:11:38;;;;;;;;;;;19.10;99.90;;;;;;4983347;28;19922;-88
2022/10/19 09:20:55;;;;;;;;;;;;;;;;;;;;;
2022/10/19 09:24:14;;;;;;;;;;;22.90;99.90;;;;;;5091037;28;19919;-89
2022/10/19 09:30:27;;;;;;;;;;;23.50;99.50;;;;;;5077008;28;19936;-86
2022/10/19 09:33:38;;;;;;;;;;;22.00;99.90;;;;;;5068929;28;19920;-88
2022/10/19 09:46:36;;;;;;;;;;;24.00;99.90;;;;;;5031784;28;19966;-89
2022/10/19 09:49:15;;;;;;;;;;;26.60;96.10;;;;;;4992791;28;19913;-87
2022/10/19 09:59:28;;;;;;;;;;;27.30;92.30;;;;;;5099029;28;19999;-90
2022/10/19 10:02:23;;;;;;;;;;;28.00;91.10;;;;;;5083271;28;19915;-88
2022/10/19 10:05:44;;;;;;;;;;;;;;;;;;;;;
2022/10/19 10:08:45;;;;;;;;;;;28.70;87.50;;;;;;5080117;28;19905;-90
2022/10/19 10:11:49;;;;;;;;;;;28.80;86.60;;;;;;5080829;28;19939;-91
2022/10/19 10:14:39;;;;;;;;;;;29.00;85.60;;;;;;5078739;28;19907;-90
2022/10/19 10:17:24;;;;;;;;;;;28.40;86.10;;;;;;5314652;23;20183;-88
2022/10/19 10:19:56;;;;;;;;;;;27.40;86.80;;;;;;5021754;28;19905;-89
2022/10/19 10:22:32;;;;;;;;;;;25.80;89.30;;;;;;5022183;28;19913;-89
2022/10/19 10:25:18;;;;;;;;;;;24.70;90.70;;;;;;5022685;28;19968;-88
2022/10/19 10:27:56;;;;;;;;;;;24.50;91.30;;;;;;5034529;28;19906;-91
2022/10/19 10:31:09;;;;;;;;;;;24.60;91.60;;;;;;5018183;28;19967;-88
2022/10/19 10:33:52;;;;;;;;;;;24.90;91.00;;;;;;5052893;23;19928;-79
2022/10/19 10:36:22;;;;;;;;;;;24.90;91.10;;;;;;5047488;28;19913;-80
2022/10/19 10:38:52;;;;;;;;;;;25.40;90.70;;;;;;5043496;28;19909;-82
2022/10/19 10:41:21;;;;;;;;;;;25.10;90.50;;;;;;5040154;28;19923;-81
2022/10/19 10:43:57;;;;;;;;;;;24.40;91.60;;;;;;5056435;28;19912;-81
2022/10/19 10:46:25;;;;;;;;;;;24.40;91.60;;;;;;5059782;28;19985;-81
2022/10/19 10:48:58;;;;;;;;;;;24.10;91.60;;;;;;5058928;28;19909;-81
2022/10/19 10:51:32;;;;;;;;;;;23.90;92.00;;;;;;5058628;28;19913;-80
2022/10/19 10:54:16;;;;;;;;;;;23.70;92.00;;;;;;5059174;28;19964;-81
2022/10/19 10:56:43;;;;;;;;;;;23.30;92.70;;;;;;5041061;28;19913;-81
2022/10/19 10:59:20;;;;;;;;;;;23.00;93.00;;;;;;5063212;28;20359;-81
2022/10/19 11:01:52;;;;;;;;;;;23.00;93.20;;;;;;5063289;28;19917;-84
2022/10/19 11:04:19;;;;;;;;;;;23.60;92.90;;;;;;5064508;28;19944;-82
2022/10/19 11:06:50;;;;;;;;;;;24.30;92.10;;;;;;5062481;28;20027;-85
2022/10/19 11:09:35;;;;;;;;;;;25.10;91.00;;;;;;5061133;28;20008;-81
2022/10/19 11:12:03;;;;;;;;;;;25.50;90.50;;;;;;5058207;28;20023;-82
2022/10/19 11:14:37;;;;;;;;;;;25.40;89.10;;;;;;5067729;28;19897;-81
2022/10/19 11:17:11;;;;;;;;;;;25.40;88.70;;;;;;5070123;28;19952;-78
2022/10/19 11:19:37;;;;;;;;;;;26.10;87.40;;;;;;5049426;28;19919;-82
2022/10/19 11:22:14;;;;;;;;;;;27.20;85.60;;;;;;5064400;28;19998;-80
2022/10/19 11:24:59;;;;;;;;;;;28.30;83.20;;;;;;5062273;28;19916;-82
2022/10/19 11:27:28;;;;;;;;;;;29.80;80.30;;;;;;5060234;28;19923;-82
2022/10/19 11:29:56;;;;;;;;;;;30.20;77.60;;;;;;5059425;28;19912;-82
2022/10/19 11:32:32;;;;;;;;;;;29.10;76.90;;;;;;5041128;28;20212;-81
2022/10/19 11:35:05;;;;;;;;;;;28.60;78.00;;;;;;5040834;28;20369;-79
2022/10/19 11:37:49;;;;;;;;;;;29.10;76.70;;;;;;5062150;28;19936;-80
2022/10/19 11:40:23;;;;;;;;;;;30.00;74.90;;;;;;5072158;28;19901;-79
2022/10/19 11:42:58;;;;;;;;;;;30.70;73.10;;;;;;5054309;28;19920;-79
2022/10/19 11:45:42;;;;;;;;;;;32.00;70.60;;;;;;5046632;28;19948;-80
2022/10/19 11:48:20;;;;;;;;;;;32.60;68.40;;;;;;5064000;28;19966;-79
2022/10/19 11:51:01;;;;;;;;;;;32.70;67.40;;;;;;5069870;28;19913;-80
2022/10/19 11:53:45;;;;;;;;;;;32.90;65.60;;;;;;5063116;28;19942;-80
2022/10/19 11:56:32;;;;;;;;;;;33.00;64.80;;;;;;5064057;28;19917;-80
2022/10/19 11:59:10;;;;;;;;;;;33.20;64.50;;;;;;5063530;28;19920;-81
2022/10/19 12:01:41;;;;;;;;;;;33.00;63.90;;;;;;5065594;28;19992;-81
2022/10/19 12:04:27;;;;;;;;;;;33.30;63.00;;;;;;5065496;28;19913;-82
2022/10/19 12:07:00;;;;;;;;;;;33.70;62.40;;;;;;5049941;28;19950;-80
2022/10/19 12:09:29;;;;;;;;;;;34.30;61.70;;;;;;5068783;28;19913;-81
2022/10/19 12:11:54;;;;;;;;;;;34.70;60.50;;;;;;5066041;28;20018;-82
2022/10/19 12:14:25;;;;;;;;;;;35.00;60.10;;;;;;5067593;28;19916;-82
2022/10/19 12:16:53;;;;;;;;;;;34.40;59.50;;;;;;5065894;28;19923;-81
2022/10/19 12:19:32;;;;;;;;;;;34.00;59.50;;;;;;5063437;28;19928;-81
2022/10/19 12:22:00;;;;;;;;;;;33.10;59.40;;;;;;5047429;28;19924;-80
2022/10/19 12:24:27;;;;;;;;;;;31.40;61.20;;;;;;5063268;28;20003;-81
2022/10/19 12:26:53;;;;;;;;;;;29.50;64.10;;;;;;5050313;28;19975;-80
2022/10/19 12:29:26;;;;;;;;;;;27.90;65.50;;;;;;5071161;28;19908;-80
2022/10/19 12:31:54;;;;;;;;;;;26.50;67.90;;;;;;5073286;28;20337;-80
2022/10/19 12:34:30;;;;;;;;;;;25.50;70.10;;;;;;5055563;28;19986;-81
2022/10/19 12:37:09;;;;;;;;;;;24.60;72.50;;;;;;5072661;28;19939;-81
2022/10/19 12:39:38;;;;;;;;;;;23.80;75.10;;;;;;5072895;28;19913;-79
2022/10/19 12:42:23;;;;;;;;;;;23.40;76.80;;;;;;5073130;28;19923;-79
2022/10/19 12:45:04;;;;;;;;;;;23.10;79.30;;;;;;5071850;28;19913;-80
2022/10/19 12:47:30;;;;;;;;;;;22.60;81.00;;;;;;5070024;28;19979;-79
2022/10/19 12:49:56;;;;;;;;;;;22.00;82.70;;;;;;5073962;28;19977;-81
2022/10/19 12:52:37;;;;;;;;;;;21.60;84.20;;;;;;5073362;28;20284;-81
2022/10/19 12:55:11;;;;;;;;;;;21.20;85.70;;;;;;5072003;28;20345;-80
2022/10/19 12:57:37;;;;;;;;;;;21.00;87.70;;;;;;5073866;28;19916;-82
2022/10/19 13:00:18;;;;;;;;;;;20.80;89.10;;;;;;5056944;28;19920;-80
2022/10/19 13:02:45;;;;;;;;;;;20.60;90.00;;;;;;5073750;28;19952;-81
2022/10/19 13:05:19;;;;;;;;;;;20.30;90.90;;;;;;5074180;28;20034;-82
2022/10/19 13:07:47;;;;;;;;;;;20.10;91.30;;;;;;5073957;28;19917;-79
2022/10/19 13:10:18;;;;;;;;;;;20.00;91.90;;;;;;5055867;28;20300;-81
2022/10/19 13:12:45;;;;;;;;;;;19.90;92.70;;;;;;5073707;28;19912;-83
2022/10/19 13:15:29;;;;;;;;;;;19.80;93.50;;;;;;5074152;28;19913;-80
2022/10/19 13:17:54;;;;;;;;;;;19.60;93.60;;;;;;5073764;28;19900;-81
2022/10/19 13:20:20;;;;;;;;;;;19.50;93.90;;;;;;5057105;28;19908;-81
2022/10/19 13:22:47;;;;;;;;;;;19.40;94.30;;;;;;5069419;28;20328;-80
2022/10/19 13:25:26;;;;;;;;;;;19.50;94.60;;;;;;5056506;28;19909;-82
2022/10/19 13:27:53;;;;;;;;;;;19.40;94.90;;;;;;5070073;28;19913;-82
2022/10/19 13:30:37;;;;;;;;;;;19.30;95.30;;;;;;5050205;28;19927;-82
2022/10/19 13:33:28;;;;;;;;;;;19.30;95.40;;;;;;5066007;28;19949;-80
2022/10/19 13:36:01;;;;;;;;;;;19.20;95.60;;;;;;5066727;28;19913;-81
2022/10/19 13:38:38;;;;;;;;;;;19.10;95.90;;;;;;5046763;28;19936;-81
2022/10/19 13:41:07;;;;;;;;;;;19.00;96.30;;;;;;5044333;28;19988;-80
2022/10/19 13:43:42;;;;;;;;;;;18.90;97.00;;;;;;5044487;28;19964;-82
2022/10/19 13:46:13;;;;;;;;;;;18.90;97.20;;;;;;5061868;28;19952;-82
2022/10/19 13:48:58;;;;;;;;;;;18.90;97.10;;;;;;5042845;28;19912;-81
2022/10/19 13:51:42;;;;;;;;;;;18.90;97.00;;;;;;5061484;28;20007;-83
2022/10/19 13:54:26;;;;;;;;;;;18.90;97.20;;;;;;5061211;28;19924;-81
2022/10/19 13:57:10;;;;;;;;;;;18.90;97.40;;;;;;5061935;28;19913;-81
2022/10/19 13:59:45;;;;;;;;;;;18.80;97.50;;;;;;5059400;28;20296;-81
2022/10/19 14:02:11;;;;;;;;;;;18.60;97.70;;;;;;5060334;28;19943;-81
2022/10/19 14:04:40;;;;;;;;;;;18.50;98.00;;;;;;5060072;28;19909;-82
2022/10/19 14:07:18;;;;;;;;;;;18.40;98.20;;;;;;5059802;28;19913;-82
2022/10/19 14:09:50;;;;;;;;;;;18.30;98.50;;;;;;5041274;28;19922;-80
2022/10/19 14:12:24;;;;;;;;;;;18.20;98.90;;;;;;5058454;28;19920;-82
2022/10/19 14:14:52;;;;;;;;;;;18.10;99.20;;;;;;5058361;28;19912;-83
2022/10/19 14:17:19;;;;;;;;;;;18.10;98.80;;;;;;5060314;28;19932;-83
2022/10/19 14:19:45;;;;;;;;;;;18.00;98.80;;;;;;5045480;28;19929;-81
2022/10/19 14:22:32;;;;;;;;;;;17.90;98.40;;;;;;5049041;28;20023;-81
2022/10/19 14:25:19;;;;;;;;;;;17.70;98.30;;;;;;5048906;28;19935;-83
2022/10/19 14:27:46;;;;;;;;;;;17.60;98.10;;;;;;5069483;28;19913;-82
2022/10/19 14:30:24;;;;;;;;;;;17.40;98.00;;;;;;5042878;28;19973;-81
2022/10/19 14:32:50;;;;;;;;;;;17.30;98.40;;;;;;5076057;28;19931;-80
2022/10/19 14:35:21;;;;;;;;;;;17.10;98.70;;;;;;5070233;28;19909;-83
2022/10/19 14:37:47;;;;;;;;;;;17.00;98.90;;;;;;5065718;28;19919;-82
2022/10/19 14:40:18;;;;;;;;;;;16.80;99.10;;;;;;5061488;28;19908;-82
2022/10/19 14:42:45;;;;;;;;;;;16.70;99.70;;;;;;5068625;28;19943;-82
2022/10/19 14:45:16;;;;;;;;;;;16.70;99.90;;;;;;5070133;28;19913;-82
2022/10/19 14:47:52;;;;;;;;;;;16.50;99.80;;;;;;5061596;28;19913;-83
2022/10/19 14:50:20;;;;;;;;;;;16.30;99.90;;;;;;5059284;28;19913;-81
2022/10/19 14:52:46;;;;;;;;;;;16.20;99.90;;;;;;5059842;28;19909;-81
2022/10/19 14:55:15;;;;;;;;;;;16.20;99.90;;;;;;5059869;28;19963;-81
2022/10/19 14:57:42;;;;;;;;;;;16.10;99.90;;;;;;5061203;28;19917;-82
2022/10/19 15:00:16;;;;;;;;;;;16.10;99.90;;;;;;5062428;28;19975;-80
2022/10/19 15:02:45;;;;;;;;;;;16.00;99.90;;;;;;5061566;28;19916;-80
2022/10/19 15:05:31;;;;;;;;;;;15.90;99.90;;;;;;5060959;28;19913;-82
2022/10/19 15:07:56;;;;;;;;;;;15.80;99.90;;;;;;5052771;28;19987;-82
2022/10/19 15:10:36;;;;;;;;;;;15.70;99.90;;;;;;5066336;28;19909;-81
2022/10/19 15:13:03;;;;;;;;;;;15.60;99.90;;;;;;5061607;28;19913;-81
2022/10/19 15:15:31;;;;;;;;;;;15.50;99.90;;;;;;5060655;28;19920;-82
2022/10/19 15:17:56;;;;;;;;;;;15.50;99.90;;;;;;5041537;28;19919;-84
2022/10/19 15:20:25;;;;;;;;;;;15.40;99.90;;;;;;5062367;28;20003;-82
2022/10/19 15:22:51;;;;;;;;;;;15.30;99.90;;;;;;5062507;28;20308;-82
2022/10/19 15:25:21;;;;;;;;;;;15.20;99.90;;;;;;5061307;28;19909;-82
2022/10/19 15:27:49;;;;;;;;;;;15.10;99.90;;;;;;5067552;28;20019;-83
2022/10/19 15:30:18;;;;;;;;;;;15.10;99.90;;;;;;5038623;28;20043;-82
2022/10/19 15:32:45;;;;;;;;;;;14.90;99.90;;;;;;5055542;28;19923;-82
2022/10/19 15:35:10;;;;;;;;;;;14.90;99.90;;;;;;5042867;28;20348;-83
2022/10/19 15:37:38;;;;;;;;;;;14.80;99.90;;;;;;5061204;28;19913;-83
2022/10/19 15:40:11;;;;;;;;;;;14.70;99.90;;;;;;5060221;28;19909;-82